Time;durP1;ratioP1;P1;durP2;ratioP2;P2;SDS_P1;SDS_P2;PMS_P1;PMS_P2;Temp;Humidity;BMP_temperature;BMP_pressure;BME280_temperature;BME280_humidity;BME280_pressure;Samples;Min_cycle;Max_cycle;Signal;HPM_P1;HPM_P2
2023/04/04 00:01:11;;;;;;;1.20;1.20;;;;;;;15.00;45.49;99510.57;104546;1267;71388;-67
2023/04/04 00:03:41;;;;;;;0.80;0.80;;;;;;;15.07;45.69;99511.04;104734;1265;73867;-66
2023/04/04 00:06:10;;;;;;;1.30;1.10;;;;;;;15.15;45.34;99509.85;104639;1251;61567;-65
2023/04/04 00:08:38;;;;;;;0.80;0.80;;;;;;;15.23;44.87;99506.09;104696;1260;60878;-64
2023/04/04 00:11:07;;;;;;;1.00;1.00;;;;;;;15.27;44.69;99509.59;104606;1257;74770;-64
2023/04/04 00:13:37;;;;;;;1.50;1.40;;;;;;;15.26;44.74;99510.33;104645;1256;71069;-65
2023/04/04 00:16:06;;;;;;;1.40;1.30;;;;;;;15.10;44.93;99514.17;104854;1251;73437;-65
2023/04/04 00:18:37;;;;;;;1.20;1.10;;;;;;;15.13;44.42;99509.77;104261;1272;61403;-64
2023/04/04 00:21:06;;;;;;;1.20;1.10;;;;;;;15.29;44.53;99512.61;104737;1256;60783;-64
2023/04/04 00:23:36;;;;;;;1.40;1.30;;;;;;;15.29;44.55;99515.11;104536;1257;74586;-64
2023/04/04 00:26:04;;;;;;;1.40;1.20;;;;;;;15.20;44.84;99514.59;104521;1257;70780;-65
2023/04/04 00:28:33;;;;;;;1.50;1.30;;;;;;;15.21;45.22;99516.15;104689;1251;73119;-64
2023/04/04 00:31:01;;;;;;;1.70;1.60;;;;;;;15.30;44.78;99515.94;104375;1266;62334;-64
2023/04/04 00:33:31;;;;;;;1.20;1.10;;;;;;;15.47;44.67;99513.06;104509;1266;60763;-65
2023/04/04 00:35:59;;;;;;;1.40;1.30;;;;;;;15.45;44.11;99513.55;104551;1257;73876;-66
2023/04/04 00:38:28;;;;;;;1.60;1.50;;;;;;;15.37;44.62;99517.73;104464;1261;70861;-66
2023/04/04 00:40:57;;;;;;;1.40;1.30;;;;;;;15.37;44.44;99520.04;104569;1254;74850;-64
2023/04/04 00:43:26;;;;;;;2.30;1.20;;;;;;;15.43;44.36;99515.06;104524;1267;62301;-64
2023/04/04 00:45:55;;;;;;;1.80;1.70;;;;;;;15.40;44.16;99512.23;104594;1264;60866;-65
2023/04/04 00:48:23;;;;;;;1.50;1.40;;;;;;;15.34;43.66;99508.60;104665;1254;73207;-64
2023/04/04 00:50:52;;;;;;;1.30;1.30;;;;;;;15.25;43.97;99506.54;104542;1255;70853;-63
2023/04/04 00:53:21;;;;;;;1.80;1.30;;;;;;;15.29;44.09;99508.54;104435;1270;73921;-63
2023/04/04 00:55:50;;;;;;;2.10;1.50;;;;;;;15.38;44.16;99509.02;104732;1257;61291;-63
2023/04/04 00:58:18;;;;;;;1.40;1.30;;;;;;;15.47;43.79;99505.45;104862;1251;60481;-64
2023/04/04 01:00:47;;;;;;;3.40;1.60;;;;;;;15.51;43.68;99503.64;104317;1257;73781;-65
2023/04/04 01:03:24;;;;;;;2.10;1.70;;;;;;;15.43;44.16;99501.49;104461;1273;70463;-67
2023/04/04 01:05:54;;;;;;;2.10;2.00;;;;;;;15.41;44.41;99506.73;104480;1255;73499;-63
2023/04/04 01:08:25;;;;;;;1.70;1.60;;;;;;;15.50;43.79;99507.06;104273;1254;61226;-63
2023/04/04 01:10:55;;;;;;;1.70;1.60;;;;;;;15.47;43.62;99506.69;104493;1253;61533;-63
2023/04/04 01:13:24;;;;;;;1.80;1.70;;;;;;;15.41;43.81;99511.85;104575;1251;74131;-63
2023/04/04 01:15:52;;;;;;;2.00;1.60;;;;;;;15.22;43.99;99517.13;104755;1251;72895;-65
2023/04/04 01:18:21;;;;;;;1.40;1.30;;;;;;;15.23;43.98;99523.08;104499;1257;74426;-64
2023/04/04 01:21:01;;;;;;;1.90;1.70;;;;;;;15.18;44.60;99521.64;104353;1257;61807;-62
2023/04/04 01:23:51;;;;;;;1.70;1.60;;;;;;;15.22;44.37;99528.80;104487;1254;60889;-62
2023/04/04 01:26:22;;;;;;;1.90;1.80;;;;;;;15.33;44.56;99528.45;104235;1270;73795;-63
2023/04/04 01:28:57;;;;;;;1.70;1.60;;;;;;;15.42;44.03;99529.08;104544;1260;71584;-62
2023/04/04 01:31:36;;;;;;;2.30;1.70;;;;;;;15.49;44.28;99529.55;104319;1254;73067;-63
2023/04/04 01:34:35;;;;;;;1.70;1.60;;;;;;;15.48;43.95;99534.70;104568;1257;61368;-63
2023/04/04 01:37:08;;;;;;;2.20;1.90;;;;;;;15.47;44.16;99543.95;104242;1262;61733;-63
2023/04/04 01:40:16;;;;;;;1.80;1.70;;;;;;;15.39;44.26;99547.13;104447;1256;73563;-63
2023/04/04 01:42:48;;;;;;;1.60;1.50;;;;;;;15.39;44.38;99552.05;104373;1254;69726;-65
2023/04/04 01:45:17;;;;;;;2.70;2.00;;;;;;;15.30;44.86;99548.23;104264;1272;73251;-64
2023/04/04 01:47:46;;;;;;;2.00;1.70;;;;;;;15.24;45.03;99548.60;104290;1257;61498;-65
2023/04/04 01:50:18;;;;;;;2.00;1.90;;;;;;;15.19;45.09;99550.32;104336;1258;60869;-64
2023/04/04 01:52:47;;;;;;;2.30;2.10;;;;;;;15.13;44.98;99546.44;104393;1258;74576;-65
2023/04/04 01:55:15;;;;;;;1.90;1.80;;;;;;;15.12;45.15;99544.06;104337;1258;70082;-64
2023/04/04 01:57:43;;;;;;;3.80;1.90;;;;;;;15.14;45.24;99541.13;104389;1270;72966;-61
2023/04/04 02:00:14;;;;;;;1.80;1.70;;;;;;;15.14;45.30;99533.86;104414;1257;62511;-66
2023/04/04 02:02:44;;;;;;;1.80;1.70;;;;;;;15.07;45.31;99534.67;104527;1257;61468;-67
2023/04/04 02:05:12;;;;;;;1.80;1.70;;;;;;;14.98;45.47;99539.14;104287;1257;74641;-67
2023/04/04 02:07:41;;;;;;;1.80;1.70;;;;;;;15.00;45.47;99537.61;104310;1257;70924;-64
2023/04/04 02:10:17;;;;;;;1.60;1.50;;;;;;;15.15;45.26;99532.41;104306;1270;75657;-66
2023/04/04 02:12:46;;;;;;;1.70;1.60;;;;;;;15.22;45.20;99530.03;104214;1275;61553;-66
2023/04/04 02:15:15;;;;;;;2.10;1.80;;;;;;;15.13;45.34;99531.98;104385;1254;61261;-67
2023/04/04 02:17:48;;;;;;;1.60;1.50;;;;;;;15.04;44.95;99533.45;104506;1257;73453;-63
2023/04/04 02:20:20;;;;;;;1.50;1.40;;;;;;;14.95;45.40;99530.27;104398;1258;71017;-67
2023/04/04 02:22:52;;;;;;;1.70;1.60;;;;;;;14.92;45.57;99525.58;104807;1256;72969;-63
2023/04/04 02:25:21;;;;;;;1.80;1.70;;;;;;;14.82;45.86;99524.09;104609;1251;62029;-66
2023/04/04 02:27:50;;;;;;;1.70;1.60;;;;;;;14.84;45.57;99518.69;104566;1256;61830;-60
2023/04/04 02:30:19;;;;;;;2.10;1.90;;;;;;;14.84;45.76;99507.86;104264;1274;73413;-65
2023/04/04 02:32:49;;;;;;;2.40;2.10;;;;;;;14.79;45.54;99503.23;104539;1255;71186;-62
2023/04/04 02:35:19;;;;;;;1.60;1.50;;;;;;;14.83;45.57;99495.80;104375;1266;73380;-62
2023/04/04 02:37:47;;;;;;;2.30;2.10;;;;;;;14.91;45.30;99496.99;104342;1261;61686;-63
2023/04/04 02:40:29;;;;;;;2.30;2.20;;;;;;;15.00;45.33;99499.13;104412;1257;60885;-62
2023/04/04 02:42:59;;;;;;;2.30;2.10;;;;;;;15.05;45.35;99496.68;104908;1251;73530;-62
2023/04/04 02:45:28;;;;;;;2.80;2.50;;;;;;;14.94;45.22;99501.21;104452;1266;70149;-65
2023/04/04 02:48:06;;;;;;;2.00;1.90;;;;;;;14.78;45.53;99501.20;104610;1260;74313;-65
2023/04/04 02:50:42;;;;;;;2.00;1.80;;;;;;;14.76;45.79;99504.66;104579;1254;61287;-67
2023/04/04 02:53:13;;;;;;;2.20;2.00;;;;;;;14.75;45.84;99515.47;104453;1267;60953;-65
2023/04/04 02:55:42;;;;;;;2.40;2.20;;;;;;;14.81;46.05;99520.60;104240;1260;73391;-65
2023/04/04 02:58:10;;;;;;;2.60;2.40;;;;;;;14.91;45.71;99524.55;104583;1264;71133;-64
2023/04/04 03:00:39;;;;;;;3.70;2.50;;;;;;;14.97;45.76;99522.09;104441;1261;73496;-64
2023/04/04 03:03:08;;;;;;;2.60;2.40;;;;;;;15.04;45.41;99525.18;104536;1260;61465;-65
2023/04/04 03:05:41;;;;;;;2.50;2.30;;;;;;;15.02;45.58;99526.48;104413;1260;61082;-65
2023/04/04 03:08:10;;;;;;;2.40;2.20;;;;;;;15.00;45.30;99533.56;104538;1270;73599;-64
2023/04/04 03:10:39;;;;;;;2.50;2.30;;;;;;;14.96;45.25;99530.96;104600;1255;69591;-64
2023/04/04 03:13:08;;;;;;;2.50;2.30;;;;;;;14.86;45.67;99533.88;104721;1251;74139;-65
2023/04/04 03:15:39;;;;;;;2.50;2.40;;;;;;;14.76;45.61;99540.83;106449;1253;62046;-64
2023/04/04 03:18:08;;;;;;;2.90;2.30;;;;;;;14.64;45.73;99542.65;105172;1254;60798;-66
2023/04/04 03:20:37;;;;;;;2.60;2.40;;;;;;;14.66;46.02;99540.58;104805;1251;74224;-64
2023/04/04 03:23:06;;;;;;;2.80;2.50;;;;;;;14.69;45.50;99540.56;104670;1251;70720;-64
2023/04/04 03:25:35;;;;;;;2.60;2.40;;;;;;;14.65;45.98;99539.95;105510;1251;73243;-64
2023/04/04 03:28:10;;;;;;;2.50;2.30;;;;;;;14.63;45.61;99543.39;104502;1251;61682;-66
2023/04/04 03:30:39;;;;;;;2.50;2.30;;;;;;;14.59;45.95;99547.14;104561;1251;61148;-66
2023/04/04 03:33:08;;;;;;;2.50;2.30;;;;;;;14.65;46.15;99545.22;104365;1254;73712;-66
2023/04/04 03:35:40;;;;;;;3.10;2.80;;;;;;;14.56;45.95;99549.79;104251;1268;70409;-66
2023/04/04 03:38:09;;;;;;;3.00;2.70;;;;;;;14.45;46.52;99546.39;104735;1254;72660;-64
2023/04/04 03:40:38;;;;;;;4.60;3.00;;;;;;;14.52;46.18;99545.09;104452;1257;62034;-63
2023/04/04 03:43:12;;;;;;;3.90;2.90;;;;;;;14.64;46.22;99545.98;104522;1255;64439;-64
2023/04/04 03:45:41;;;;;;;3.10;2.90;;;;;;;14.71;46.12;99546.98;104337;1257;75341;-63
2023/04/04 03:48:10;;;;;;;3.00;2.50;;;;;;;14.75;46.12;99543.86;104673;1252;69998;-63
2023/04/04 03:50:40;;;;;;;3.90;2.70;;;;;;;14.80;45.99;99540.08;104471;1267;74379;-61
2023/04/04 03:53:11;;;;;;;2.70;2.40;;;;;;;14.84;46.09;99541.42;104638;1252;61703;-62
2023/04/04 03:55:44;;;;;;;3.00;2.80;;;;;;;14.86;45.91;99544.32;104500;1260;61652;-62
2023/04/04 03:58:14;;;;;;;2.80;2.60;;;;;;;14.78;45.53;99546.52;104473;1267;74069;-64
2023/04/04 04:00:42;;;;;;;2.70;2.40;;;;;;;14.73;45.31;99548.77;104467;1261;70880;-65
2023/04/04 04:03:12;;;;;;;2.30;2.10;;;;;;;14.79;45.29;99551.08;104482;1265;74219;-63
2023/04/04 04:05:44;;;;;;;2.90;2.50;;;;;;;14.82;45.57;99559.35;104501;1264;61982;-65
2023/04/04 04:08:12;;;;;;;5.50;2.60;;;;;;;14.85;45.25;99552.27;104506;1254;61656;-65
2023/04/04 04:10:42;;;;;;;2.50;2.30;;;;;;;14.80;45.37;99548.52;104596;1251;75546;-64
2023/04/04 04:13:11;;;;;;;2.70;2.50;;;;;;;14.78;45.63;99549.89;104358;1255;70874;-65
2023/04/04 04:15:40;;;;;;;2.90;2.40;;;;;;;14.74;45.40;99550.82;104324;1267;73589;-66
2023/04/04 04:18:15;;;;;;;2.80;2.60;;;;;;;14.73;45.72;99558.30;104481;1256;62087;-61
2023/04/04 04:20:44;;;;;;;3.00;2.40;;;;;;;14.68;45.33;99564.97;104500;1260;61677;-63
2023/04/04 04:23:12;;;;;;;2.80;2.50;;;;;;;14.67;45.87;99568.05;104271;1270;75523;-63
2023/04/04 04:25:42;;;;;;;3.30;2.70;;;;;;;14.68;45.51;99562.86;104760;1251;70209;-63
2023/04/04 04:28:16;;;;;;;2.60;2.40;;;;;;;14.76;45.88;99566.05;104512;1260;73192;-62
2023/04/04 04:30:46;;;;;;;3.10;2.70;;;;;;;14.87;45.27;99563.48;104438;1251;61774;-62
2023/04/04 04:33:16;;;;;;;3.10;2.60;;;;;;;14.93;44.65;99562.58;104509;1257;61573;-62
2023/04/04 04:36:04;;;;;;;2.90;2.60;;;;;;;15.03;45.13;99557.71;104603;1257;75433;-63
2023/04/04 04:38:43;;;;;;;3.10;2.80;;;;;;;15.09;45.08;99558.88;104275;1251;69564;-65
2023/04/04 04:41:11;;;;;;;2.40;2.20;;;;;;;15.12;45.19;99559.58;107988;1251;74869;-60
2023/04/04 04:43:48;;;;;;;2.90;2.70;;;;;;;14.98;44.49;99562.60;105506;1251;61875;-62
2023/04/04 04:46:17;;;;;;;3.20;2.90;;;;;;;15.01;45.29;99557.49;104883;1263;61774;-63
2023/04/04 04:48:47;;;;;;;3.30;3.00;;;;;;;15.02;45.05;99564.30;104723;1252;76281;-64
2023/04/04 04:51:16;;;;;;;4.00;2.90;;;;;;;15.04;45.01;99562.56;104591;1264;69710;-63
2023/04/04 04:53:48;;;;;;;3.70;2.70;;;;;;;15.06;44.95;99561.59;104292;1266;73214;-61
2023/04/04 04:56:17;;;;;;;4.10;3.00;;;;;;;15.02;45.02;99561.63;104523;1251;62187;-61
2023/04/04 04:58:49;;;;;;;3.50;2.70;;;;;;;14.97;45.03;99564.41;104460;1251;61783;-61
2023/04/04 05:01:26;;;;;;;3.00;2.50;;;;;;;15.01;45.11;99564.52;104649;1251;74685;-62
2023/04/04 05:03:55;;;;;;;2.80;2.60;;;;;;;15.11;44.74;99568.30;104536;1255;70628;-61
2023/04/04 05:06:28;;;;;;;4.60;3.20;;;;;;;15.19;44.89;99565.17;104717;1257;73548;-62
2023/04/04 05:08:58;;;;;;;3.20;2.90;;;;;;;15.13;44.76;99562.69;104562;1267;61678;-65
2023/04/04 05:11:30;;;;;;;3.90;3.50;;;;;;;15.20;44.69;99565.13;104657;1254;61681;-64
2023/04/04 05:14:00;;;;;;;3.60;3.10;;;;;;;15.17;44.45;99566.20;104723;1257;74308;-63
2023/04/04 05:16:34;;;;;;;3.40;3.10;;;;;;;15.15;44.47;99569.12;104322;1256;71229;-62
2023/04/04 05:19:03;;;;;;;3.60;3.30;;;;;;;15.05;44.34;99569.96;104493;1255;73928;-63
2023/04/04 05:21:36;;;;;;;4.20;3.50;;;;;;;14.96;44.26;99578.23;104604;1254;61682;-61
2023/04/04 05:24:08;;;;;;;4.00;3.70;;;;;;;14.84;45.24;99590.80;104673;1255;61650;-64
2023/04/04 05:26:39;;;;;;;3.80;3.50;;;;;;;14.73;45.18;99581.25;104444;1253;74714;-64
2023/04/04 05:29:08;;;;;;;3.30;3.00;;;;;;;14.74;45.50;99551.21;104463;1269;70857;-64
2023/04/04 05:31:41;;;;;;;4.00;3.60;;;;;;;14.87;45.38;99542.09;104615;1253;74042;-66
2023/04/04 05:34:15;;;;;;;3.60;3.20;;;;;;;14.95;45.32;99557.34;104438;1254;61685;-63
2023/04/04 05:36:45;;;;;;;3.70;3.30;;;;;;;14.99;45.22;99585.84;104634;1255;61589;-61
2023/04/04 05:39:17;;;;;;;4.00;3.60;;;;;;;15.13;45.19;99602.59;104841;1252;76296;-62
2023/04/04 05:41:52;;;;;;;3.80;3.20;;;;;;;15.14;44.48;99602.02;108312;1253;73420;-61
2023/04/04 05:44:21;;;;;;;3.70;3.40;;;;;;;15.11;44.51;99601.32;108415;1253;73488;-62
2023/04/04 05:46:52;;;;;;;3.40;3.00;;;;;;;15.10;44.67;99603.36;105087;1257;61461;-62
2023/04/04 05:49:21;;;;;;;4.20;3.40;;;;;;;15.09;44.54;99614.69;104909;1256;62213;-61
2023/04/04 05:52:02;;;;;;;3.80;3.50;;;;;;;15.09;44.50;99618.91;104594;1252;75146;-62
2023/04/04 05:54:32;;;;;;;3.00;2.70;;;;;;;15.14;44.44;99622.52;104283;1256;70746;-62
2023/04/04 05:57:03;;;;;;;4.10;3.70;;;;;;;15.27;44.34;99617.96;104764;1254;74217;-62
2023/04/04 05:59:44;;;;;;;3.40;3.10;;;;;;;15.41;44.13;99620.63;104658;1257;61672;-64
2023/04/04 06:02:15;;;;;;;3.30;3.00;;;;;;;15.45;43.86;99620.76;104849;1252;61625;-62
2023/04/04 06:04:49;;;;;;;3.30;2.80;;;;;;;15.49;43.64;99625.45;104304;1257;74126;-62
2023/04/04 06:07:25;;;;;;;3.30;3.10;;;;;;;15.44;43.48;99619.73;104378;1264;70852;-62
2023/04/04 06:09:53;;;;;;;3.40;3.10;;;;;;;15.49;43.75;99623.34;104361;1254;73223;-62
2023/04/04 06:12:22;;;;;;;4.00;3.60;;;;;;;15.57;43.43;99629.13;104227;1257;61865;-61
2023/04/04 06:14:51;;;;;;;4.40;4.00;;;;;;;15.65;43.67;99630.23;104353;1269;61639;-65
2023/04/04 06:17:22;;;;;;;4.70;4.10;;;;;;;15.68;43.58;99621.60;104216;1258;74357;-62
2023/04/04 06:19:51;;;;;;;6.50;5.20;;;;;;;15.66;43.50;99618.52;104323;1252;70969;-62
2023/04/04 06:22:20;;;;;;;5.80;5.20;;;;;;;15.66;43.48;99616.97;104245;1267;73300;-62
2023/04/04 06:24:51;;;;;;;6.40;5.20;;;;;;;15.69;42.96;99617.78;104508;1256;63349;-62
2023/04/04 06:27:21;;;;;;;5.10;4.60;;;;;;;15.63;43.52;99616.09;104356;1251;61796;-62
2023/04/04 06:29:50;;;;;;;4.20;3.80;;;;;;;15.57;43.38;99610.43;104587;1266;75548;-61
2023/04/04 06:32:22;;;;;;;4.40;3.70;;;;;;;15.46;43.49;99609.19;104581;1264;71497;-63
2023/04/04 06:34:52;;;;;;;3.10;2.90;;;;;;;15.30;43.52;99604.02;104526;1251;74956;-63
2023/04/04 06:37:33;;;;;;;2.80;2.60;;;;;;;15.27;43.92;99606.66;104328;1270;62137;-62
2023/04/04 06:40:11;;;;;;;4.30;3.90;;;;;;;15.36;43.80;99609.11;105716;1251;61611;-63
2023/04/04 06:42:48;;;;;;;3.30;3.00;;;;;;;15.39;43.76;99607.56;107997;1250;75843;-63
2023/04/04 06:45:17;;;;;;;3.80;3.50;;;;;;;15.34;44.10;99604.47;108462;1250;72049;-65
2023/04/04 06:47:48;;;;;;;3.80;3.30;;;;;;;15.29;44.39;99600.55;108544;1250;73789;-63
2023/04/04 06:50:17;;;;;;;3.50;3.10;;;;;;;15.27;44.45;99602.80;107098;1253;61983;-61
2023/04/04 06:52:51;;;;;;;3.50;3.00;;;;;;;15.32;44.41;99603.36;105921;1251;61607;-61
2023/04/04 06:55:22;;;;;;;4.00;3.60;;;;;;;15.38;44.04;99599.09;105185;1254;76308;-63
2023/04/04 06:57:54;;;;;;;3.20;3.00;;;;;;;15.32;44.53;99595.77;104927;1254;69913;-61
2023/04/04 07:00:22;;;;;;;4.00;3.60;;;;;;;15.36;44.13;99600.65;105007;1254;73772;-62
2023/04/04 07:02:58;;;;;;;3.60;3.10;;;;;;;15.48;44.50;99604.14;104966;1258;62309;-61
2023/04/04 07:05:27;;;;;;;3.70;3.30;;;;;;;15.56;44.41;99611.26;104727;1251;61666;-63
2023/04/04 07:35:10;;;;;;;3.00;2.70;;;;;;;15.37;43.90;99637.84;104404;1261;76663;-63
2023/04/04 07:37:39;;;;;;;3.80;3.50;;;;;;;15.40;44.12;99632.87;104434;1254;70105;-63
2023/04/04 07:40:08;;;;;;;3.90;3.60;;;;;;;15.46;44.34;99629.52;104527;1251;73747;-63
2023/04/04 07:42:43;;;;;;;3.60;3.30;;;;;;;15.37;43.79;99630.98;104385;1273;61978;-63
2023/04/04 07:45:12;;;;;;;3.50;3.10;;;;;;;15.45;43.84;99626.55;104604;1257;61692;-63
2023/04/04 07:47:45;;;;;;;8.20;4.70;;;;;;;15.52;43.69;99625.22;104525;1267;75184;-64
2023/04/04 07:50:14;;;;;;;4.30;3.80;;;;;;;15.50;43.56;99628.35;104404;1266;71695;-63
2023/04/04 07:52:48;;;;;;;4.70;4.10;;;;;;;15.34;43.83;99629.56;104235;1257;73268;-63
2023/04/04 07:55:20;;;;;;;4.70;3.70;;;;;;;15.28;44.27;99630.84;104642;1256;61681;-63
2023/04/04 07:57:48;;;;;;;4.20;3.80;;;;;;;15.30;43.98;99634.42;105095;1250;61637;-63
2023/04/04 08:00:20;;;;;;;4.50;4.10;;;;;;;15.26;43.51;99636.23;104587;1250;75505;-65
2023/04/04 08:02:52;;;;;;;4.10;3.70;;;;;;;15.33;44.02;99638.65;104516;1250;70711;-63
2023/04/04 08:05:21;;;;;;;4.40;4.10;;;;;;;15.46;44.30;99638.37;104879;1251;74124;-63
2023/04/04 08:07:49;;;;;;;5.70;4.40;;;;;;;15.59;43.97;99632.73;104551;1260;63768;-63
2023/04/04 08:10:21;;;;;;;3.90;3.60;;;;;;;15.66;43.48;99630.05;104462;1257;61682;-63
2023/04/04 08:12:52;;;;;;;4.40;4.00;;;;;;;15.66;43.60;99632.52;104339;1255;74398;-63
2023/04/04 08:15:20;;;;;;;4.20;3.80;;;;;;;15.67;43.50;99633.30;104723;1251;69830;-62
2023/04/04 08:17:54;;;;;;;4.00;3.70;;;;;;;15.73;43.67;99633.96;104706;1257;73496;-62
2023/04/04 08:20:23;;;;;;;4.40;4.10;;;;;;;15.74;43.78;99630.61;104827;1254;61611;-62
2023/04/04 08:22:51;;;;;;;4.20;3.80;;;;;;;15.75;43.34;99632.66;104952;1257;62295;-62
2023/04/04 08:25:20;;;;;;;3.30;3.10;;;;;;;15.76;43.35;99632.09;105000;1254;74437;-61
2023/04/04 08:27:49;;;;;;;3.90;3.50;;;;;;;15.78;43.91;99629.43;104446;1253;70054;-62
2023/04/04 08:30:18;;;;;;;3.60;3.30;;;;;;;15.91;43.83;99630.92;104211;1254;73037;-63
2023/04/04 08:33:07;;;;;;;4.50;4.10;;;;;;;15.97;43.05;99630.91;104269;1267;64122;-61
2023/04/04 08:35:36;;;;;;;5.40;4.00;;;;;;;15.95;43.27;99635.43;104434;1254;61580;-63
2023/04/04 08:38:07;;;;;;;4.70;4.00;;;;;;;15.94;43.33;99637.61;104469;1253;74430;-61
2023/04/04 08:40:37;;;;;;;5.00;4.50;;;;;;;15.98;43.55;99632.55;105662;1253;70935;-61
2023/04/04 08:43:07;;;;;;;5.50;4.90;;;;;;;16.05;43.30;99636.37;108125;1252;73869;-61
2023/04/04 08:45:36;;;;;;;4.40;4.00;;;;;;;16.11;43.48;99642.70;108213;1253;61391;-61
2023/04/04 08:48:05;;;;;;;4.80;4.30;;;;;;;16.13;43.32;99643.65;108240;1254;60235;-62
2023/04/04 08:50:34;;;;;;;4.40;4.00;;;;;;;16.07;43.46;99649.64;108192;1254;74476;-62
2023/04/04 08:53:03;;;;;;;5.00;4.50;;;;;;;16.00;43.30;99653.48;104977;1256;70347;-65
2023/04/04 08:55:33;;;;;;;6.00;5.30;;;;;;;15.99;43.55;99653.95;104300;1255;73746;-64
2023/04/04 08:58:02;;;;;;;6.50;5.40;;;;;;;15.90;44.00;99652.90;104293;1258;62249;-63
2023/04/04 09:00:31;;;;;;;6.20;5.60;;;;;;;15.94;44.18;99648.05;104510;1262;61596;-61
2023/04/04 09:03:20;;;;;;;6.40;5.70;;;;;;;15.90;43.62;99651.48;104761;1253;74665;-62
2023/04/04 09:05:49;;;;;;;5.30;4.80;;;;;;;15.76;43.62;99645.52;104565;1260;70505;-62
2023/04/04 09:08:18;;;;;;;5.10;4.60;;;;;;;15.80;43.78;99652.30;104669;1256;75879;-62
2023/04/04 09:10:47;;;;;;;5.20;4.70;;;;;;;15.82;43.59;99655.36;104519;1252;62134;-63
2023/04/04 09:13:15;;;;;;;6.90;5.60;;;;;;;15.92;43.83;99656.98;108427;1252;61633;-63
2023/04/04 09:15:48;;;;;;;5.80;4.80;;;;;;;15.97;43.84;99656.16;107053;1253;74837;-62
2023/04/04 09:18:18;;;;;;;6.70;5.00;;;;;;;16.01;43.63;99655.71;105235;1253;71360;-62
2023/04/04 09:20:48;;;;;;;6.00;5.10;;;;;;;16.05;43.32;99655.81;105568;1253;73132;-65
2023/04/04 09:23:19;;;;;;;6.00;5.00;;;;;;;16.07;43.50;99654.09;104684;1255;63166;-62
2023/04/04 09:25:52;;;;;;;5.20;4.80;;;;;;;16.11;43.80;99655.77;104991;1253;61691;-62
2023/04/04 09:28:26;;;;;;;6.20;5.00;;;;;;;16.12;43.47;99652.39;104860;1256;75545;-63
2023/04/04 09:30:54;;;;;;;4.90;4.40;;;;;;;16.18;43.23;99653.02;104792;1256;71119;-63
2023/04/04 09:33:23;;;;;;;5.60;5.10;;;;;;;16.13;43.43;99656.37;104616;1253;73195;-60
2023/04/04 09:35:57;;;;;;;6.00;5.40;;;;;;;16.17;43.65;99652.58;104672;1258;61622;-61
2023/04/04 09:38:32;;;;;;;5.50;5.00;;;;;;;16.28;43.51;99650.79;105038;1254;61560;-63
2023/04/04 09:41:00;;;;;;;5.90;5.20;;;;;;;16.33;43.66;99653.25;104632;1260;74947;-61
2023/04/04 09:43:29;;;;;;;5.50;4.90;;;;;;;16.34;43.54;99656.70;104248;1259;70071;-62
2023/04/04 09:45:59;;;;;;;7.00;5.70;;;;;;;16.25;43.54;99649.94;104047;1257;74312;-63
2023/04/04 09:48:33;;;;;;;7.30;5.50;;;;;;;16.29;43.47;99649.61;108164;1254;61781;-60
2023/04/04 09:51:04;;;;;;;6.20;5.10;;;;;;;16.29;43.26;99652.64;108187;1253;60770;-61
2023/04/04 09:53:38;;;;;;;5.90;5.00;;;;;;;16.38;43.52;99653.30;107614;1253;74551;-61
2023/04/04 09:56:07;;;;;;;5.30;4.80;;;;;;;16.37;43.57;99648.58;107267;1254;71671;-60
2023/04/04 09:58:39;;;;;;;5.00;4.60;;;;;;;16.38;43.49;99646.05;105407;1255;73450;-60
2023/04/04 10:01:19;;;;;;;4.90;4.50;;;;;;;16.34;43.71;99644.51;104994;1256;61689;-60
2023/04/04 10:03:53;;;;;;;5.90;4.60;;;;;;;16.40;44.29;99640.59;104837;1253;61997;-59
2023/04/04 10:06:21;;;;;;;5.40;4.90;;;;;;;16.43;43.54;99639.34;104683;1256;75422;-60
2023/04/04 10:08:51;;;;;;;6.10;5.50;;;;;;;16.46;43.97;99638.60;104397;1259;70440;-60
2023/04/04 10:11:33;;;;;;;6.50;5.90;;;;;;;16.55;44.11;99637.50;104543;1258;72971;-62
2023/04/04 10:14:05;;;;;;;6.30;5.70;;;;;;;16.65;43.15;99639.99;104837;1253;62245;-62
2023/04/04 10:16:36;;;;;;;6.50;5.80;;;;;;;16.69;43.14;99639.66;104484;1256;61762;-62
2023/04/04 10:19:08;;;;;;;6.40;5.70;;;;;;;16.70;43.20;99635.03;104754;1253;74134;-63
2023/04/04 10:21:42;;;;;;;5.80;5.20;;;;;;;16.73;42.83;99634.46;104315;1268;70404;-64
2023/04/04 10:24:10;;;;;;;6.10;5.30;;;;;;;16.73;43.27;99632.16;104370;1271;74104;-63
2023/04/04 10:26:39;;;;;;;6.30;5.70;;;;;;;16.65;43.43;99631.45;104409;1266;62318;-65
2023/04/04 10:29:07;;;;;;;5.80;5.20;;;;;;;16.64;43.37;99634.18;104597;1261;61835;-63
2023/04/04 10:31:39;;;;;;;6.80;5.90;;;;;;;16.64;43.44;99635.28;104450;1263;75027;-63
2023/04/04 10:34:31;;;;;;;6.10;5.50;;;;;;;16.67;43.36;99639.15;104822;1257;70269;-63
2023/04/04 10:37:12;;;;;;;6.00;5.20;;;;;;;16.54;43.13;99640.91;104720;1254;73229;-61
2023/04/04 10:39:50;;;;;;;6.40;5.60;;;;;;;16.45;43.80;99645.76;104660;1253;61970;-62
2023/04/04 10:42:18;;;;;;;6.50;5.90;;;;;;;16.59;44.13;99649.57;104677;1253;61688;-62
2023/04/04 10:44:46;;;;;;;5.70;5.10;;;;;;;16.62;43.05;99649.73;104645;1263;75969;-62
2023/04/04 10:47:22;;;;;;;5.70;5.20;;;;;;;16.45;43.52;99647.86;104569;1266;69920;-62
2023/04/04 10:49:51;;;;;;;6.20;5.40;;;;;;;16.40;43.11;99646.80;104474;1256;74170;-62
2023/04/04 10:52:21;;;;;;;6.70;5.30;;;;;;;16.38;43.52;99644.45;104768;1263;61942;-65
2023/04/04 10:54:54;;;;;;;6.10;5.50;;;;;;;16.37;43.40;99644.17;104696;1267;63267;-62
2023/04/04 10:57:23;;;;;;;5.50;5.00;;;;;;;16.47;43.41;99646.13;104650;1259;74885;-62
2023/04/04 11:00:07;;;;;;;6.00;5.50;;;;;;;16.61;43.39;99644.13;104782;1254;70191;-63
2023/04/04 11:03:00;;;;;;;6.60;5.30;;;;;;;16.68;43.00;99644.04;104533;1256;73223;-64
2023/04/04 11:05:39;;;;;;;5.50;5.00;;;;;;;16.74;42.97;99640.62;104607;1253;61825;-63
2023/04/04 11:08:09;;;;;;;6.00;5.40;;;;;;;16.82;42.67;99639.39;104758;1260;61682;-63
2023/04/04 11:10:42;;;;;;;5.50;4.90;;;;;;;16.86;42.07;99639.84;104586;1257;74582;-62
2023/04/04 11:13:21;;;;;;;6.60;5.00;;;;;;;16.97;42.45;99637.84;104846;1254;70635;-62
2023/04/04 11:16:06;;;;;;;5.40;4.70;;;;;;;17.01;42.79;99644.62;104636;1253;74211;-63
2023/04/04 11:18:42;;;;;;;5.20;4.80;;;;;;;17.17;42.58;99643.38;105210;1254;61606;-62
2023/04/04 11:21:19;;;;;;;4.70;4.30;;;;;;;17.26;42.30;99648.40;104873;1253;60702;-62
2023/04/04 11:23:48;;;;;;;6.20;4.90;;;;;;;17.25;42.05;99646.85;105241;1253;74681;-63
2023/04/04 11:26:27;;;;;;;5.50;5.00;;;;;;;17.27;41.90;99651.13;105066;1254;71255;-61
2023/04/04 11:29:07;;;;;;;5.90;4.90;;;;;;;17.29;41.89;99647.98;104638;1260;74184;-62
2023/04/04 11:31:42;;;;;;;5.60;4.90;;;;;;;17.37;41.74;99646.74;104607;1254;61695;-61
2023/04/04 11:34:12;;;;;;;5.10;4.60;;;;;;;17.36;41.62;99644.14;104609;1254;61546;-62
2023/04/04 11:36:41;;;;;;;5.90;5.20;;;;;;;17.39;41.87;99641.96;104862;1253;74259;-61
2023/04/04 11:42:12;;;;;;;5.50;4.90;;;;;;;16.11;46.34;99639.52;102829;1289;602267;-64
2023/04/04 11:44:49;;;;;;;6.90;4.80;;;;;;;17.53;41.93;99635.48;106422;1266;62027;-62
2023/04/04 11:47:18;;;;;;;5.70;5.00;;;;;;;17.55;41.93;99644.17;104333;1267;60568;-60
2023/04/04 11:49:47;;;;;;;5.20;4.70;;;;;;;17.56;41.61;99646.97;104460;1263;72964;-61
2023/04/04 11:52:20;;;;;;;5.50;5.00;;;;;;;17.56;41.53;99644.99;104140;1270;70084;-63
2023/04/04 11:54:50;;;;;;;5.20;4.70;;;;;;;17.48;40.87;99642.20;103920;1264;248519;-61
2023/04/04 11:57:19;;;;;;;5.30;4.80;;;;;;;17.45;41.04;99643.62;104066;1266;61525;-62
2023/04/04 11:59:49;;;;;;;9.80;4.70;;;;;;;17.46;41.73;99642.16;104091;1270;60576;-65
2023/04/04 12:02:19;;;;;;;4.40;4.00;;;;;;;17.50;41.76;99645.45;104660;1257;73769;-62
2023/04/04 12:04:48;;;;;;;5.30;4.80;;;;;;;17.59;41.91;99641.11;104330;1260;71128;-63
2023/04/04 12:07:21;;;;;;;4.70;4.20;;;;;;;17.66;41.15;99638.98;104262;1261;73534;-64
2023/04/04 12:09:51;;;;;;;4.50;4.10;;;;;;;17.68;41.02;99635.05;104290;1264;60951;-63
2023/04/04 12:12:20;;;;;;;4.70;4.30;;;;;;;17.71;41.10;99629.75;104323;1254;60906;-64
2023/04/04 12:14:49;;;;;;;5.50;4.90;;;;;;;17.77;41.53;99630.23;104311;1260;73872;-63